Time;durP1;ratioP1;P1;durP2;ratioP2;P2;SDS_P1;SDS_P2;PMS_P1;PMS_P2;Temp;Humidity;BMP_temperature;BMP_pressure;BME280_temperature;BME280_humidity;BME280_pressure;Samples;Min_cycle;Max_cycle;Signal;HPM_P1;HPM_P2
2023/08/15 00:01:36;;;;;;;9.85;4.00;;;;;;;20.44;88.26;101142.31;5106464;28;20497;-49
2023/08/15 00:04:02;;;;;;;7.47;3.65;;;;;;;20.41;88.51;101137.25;5104273;28;20490;-46
2023/08/15 00:06:27;;;;;;;9.27;4.28;;;;;;;20.39;89.07;101132.03;5102807;28;20036;-47
2023/08/15 00:08:55;;;;;;;11.73;4.30;;;;;;;20.34;88.86;101129.84;5099915;28;20047;-47
2023/08/15 00:11:22;;;;;;;9.35;4.03;;;;;;;20.30;90.14;101119.59;5105572;28;20081;-48
2023/08/15 00:13:47;;;;;;;8.23;4.38;;;;;;;20.26;90.32;101108.31;5102262;28;20505;-50
2023/08/15 00:16:13;;;;;;;10.77;3.95;;;;;;;20.23;90.31;101103.25;5104698;28;20051;-48
2023/08/15 00:18:38;;;;;;;12.05;3.95;;;;;;;20.19;89.36;101103.81;5104092;28;20036;-48
2023/08/15 00:21:03;;;;;;;8.65;3.90;;;;;;;20.18;89.89;101118.28;5102052;28;20024;-48
2023/08/15 00:23:29;;;;;;;10.25;4.05;;;;;;;20.13;90.25;101108.88;5105304;28;20473;-48
2023/08/15 00:25:54;;;;;;;9.25;3.95;;;;;;;20.05;90.61;101127.78;5106449;28;20157;-48
2023/08/15 00:28:19;;;;;;;9.52;4.00;;;;;;;20.00;91.70;101132.84;5102926;28;20035;-50
2023/08/15 00:30:45;;;;;;;6.85;3.25;;;;;;;20.01;91.22;101136.38;5098575;28;20024;-47
2023/08/15 00:33:10;;;;;;;7.47;3.95;;;;;;;19.98;91.66;101139.41;5099179;28;20522;-47
2023/08/15 00:35:35;;;;;;;7.30;3.45;;;;;;;19.94;90.75;101138.94;5106246;28;20587;-47
2023/08/15 00:38:01;;;;;;;10.07;3.83;;;;;;;19.86;91.14;101138.94;5102907;27;20385;-47
2023/08/15 00:40:26;;;;;;;10.48;4.55;;;;;;;19.83;91.07;101144.66;5102555;28;20469;-48
2023/08/15 00:42:51;;;;;;;8.95;3.58;;;;;;;19.77;91.08;101151.59;5102402;28;20028;-47
2023/08/15 00:45:17;;;;;;;9.98;3.72;;;;;;;19.76;91.05;101149.91;5101106;28;20128;-47
2023/08/15 00:47:43;;;;;;;9.80;3.95;;;;;;;19.70;91.24;101150.53;5103743;28;20032;-47
2023/08/15 00:50:09;;;;;;;9.75;4.45;;;;;;;19.63;90.74;101163.84;5097535;28;20511;-47
2023/08/15 00:52:35;;;;;;;10.35;3.72;;;;;;;19.58;90.35;101161.69;5101424;28;20109;-48
2023/08/15 00:55:01;;;;;;;13.43;4.38;;;;;;;19.57;90.36;101159.16;5104476;28;20469;-48
2023/08/15 00:57:27;;;;;;;9.38;3.95;;;;;;;19.47;90.10;101162.03;5099744;28;20059;-47
2023/08/15 00:59:52;;;;;;;9.00;3.50;;;;;;;19.41;88.37;101160.81;5098470;28;20434;-47
2023/08/15 01:02:18;;;;;;;10.13;3.80;;;;;;;19.31;88.90;101157.47;5105438;28;20449;-48
2023/08/15 01:04:43;;;;;;;9.73;3.30;;;;;;;19.25;87.25;101146.50;5099004;28;20020;-50
2023/08/15 01:07:12;;;;;;;9.43;3.63;;;;;;;19.17;87.90;101150.06;5102922;28;20038;-48
2023/08/15 01:09:37;;;;;;;10.95;3.97;;;;;;;19.13;87.96;101140.63;5105618;28;20099;-48
2023/08/15 01:12:16;;;;;;;9.10;3.50;;;;;;;19.11;87.09;101139.94;5102309;28;20427;-50
2023/08/15 01:14:49;;;;;;;10.00;3.47;;;;;;;19.04;88.04;101137.06;5095598;28;20040;-47
2023/08/15 01:17:22;;;;;;;9.93;3.55;;;;;;;19.00;86.49;101136.56;5101926;28;20039;-47
2023/08/15 01:19:52;;;;;;;11.80;4.00;;;;;;;18.96;87.09;101139.75;5105120;28;20042;-47
2023/08/15 01:22:26;;;;;;;10.75;3.17;;;;;;;18.95;88.22;101133.53;5096055;28;20460;-48
2023/08/15 01:24:52;;;;;;;8.48;3.40;;;;;;;18.95;86.24;101136.22;5100544;28;20474;-47
2023/08/15 01:27:17;;;;;;;8.77;3.88;;;;;;;18.93;86.21;101135.53;5100342;28;20028;-47
2023/08/15 01:29:42;;;;;;;9.85;3.45;;;;;;;18.95;86.83;101135.38;5102306;28;20384;-47
2023/08/15 01:32:29;;;;;;;9.52;3.67;;;;;;;18.92;87.06;101139.25;5101987;28;20042;-48
2023/08/15 01:35:30;;;;;;;9.25;3.55;;;;;;;18.90;86.45;101157.41;5099659;28;20036;-47
2023/08/15 01:38:02;;;;;;;5.68;2.92;;;;;;;18.81;86.39;101167.25;5100913;28;20027;-48
2023/08/15 01:40:33;;;;;;;7.45;3.55;;;;;;;18.81;87.10;101172.66;5099574;28;20469;-47
2023/08/15 01:43:00;;;;;;;7.18;3.63;;;;;;;18.73;87.23;101169.94;5101615;28;20028;-48
2023/08/15 01:45:26;;;;;;;10.45;3.55;;;;;;;18.73;87.42;101169.94;5099099;28;20059;-47
2023/08/15 01:47:51;;;;;;;11.57;3.45;;;;;;;18.70;87.64;101180.19;5098977;28;20028;-48
2023/08/15 01:50:16;;;;;;;10.98;3.55;;;;;;;18.68;87.66;101183.91;5102276;28;20550;-48
2023/08/15 01:52:42;;;;;;;9.20;3.35;;;;;;;18.66;87.82;101185.88;5098712;28;20601;-47
2023/08/15 01:55:07;;;;;;;7.68;3.55;;;;;;;18.66;87.51;101188.56;5101951;28;20035;-47
2023/08/15 01:57:33;;;;;;;8.88;3.10;;;;;;;18.64;88.24;101198.66;5102839;28;20031;-48
2023/08/15 01:59:58;;;;;;;8.67;3.47;;;;;;;18.67;87.54;101197.50;5097354;28;20024;-47
2023/08/15 02:02:23;;;;;;;8.75;3.25;;;;;;;18.65;88.31;101194.97;5101054;28;20309;-47
2023/08/15 02:04:49;;;;;;;8.15;3.22;;;;;;;18.66;88.73;101202.03;5097595;28;20107;-47
2023/08/15 02:07:14;;;;;;;10.88;3.25;;;;;;;18.63;87.93;101210.41;5100832;28;20032;-48
2023/08/15 02:09:39;;;;;;;11.35;3.60;;;;;;;18.61;89.00;101198.16;5102974;28;20484;-47
2023/08/15 02:12:05;;;;;;;10.55;3.63;;;;;;;18.59;87.71;101206.38;5095803;28;20027;-47
2023/08/15 02:14:30;;;;;;;9.30;3.30;;;;;;;18.60;87.91;101210.75;5098725;28;20032;-48
2023/08/15 02:16:55;;;;;;;11.27;3.83;;;;;;;18.59;88.09;101214.44;5100659;28;20355;-50
2023/08/15 02:19:21;;;;;;;10.90;3.58;;;;;;;18.53;88.55;101223.16;5098215;28;20108;-47
2023/08/15 02:21:46;;;;;;;10.98;3.95;;;;;;;18.55;88.90;101228.38;5102822;28;20107;-50
2023/08/15 02:24:11;;;;;;;11.18;3.42;;;;;;;18.52;89.16;101237.63;5099710;28;20095;-50
2023/08/15 02:26:37;;;;;;;14.70;3.50;;;;;;;18.51;88.79;101233.22;5102433;28;20051;-49
2023/08/15 02:29:03;;;;;;;9.10;3.65;;;;;;;18.50;88.98;101228.84;5099175;28;20012;-49
2023/08/15 02:31:29;;;;;;;10.80;3.40;;;;;;;18.48;89.49;101234.41;5098999;28;21070;-49
2023/08/15 02:33:55;;;;;;;10.20;3.25;;;;;;;18.44;89.23;101229.50;5099997;28;20028;-49
2023/08/15 02:36:21;;;;;;;9.20;3.60;;;;;;;18.41;89.45;101230.66;5097077;28;20078;-49
2023/08/15 02:38:46;;;;;;;11.73;3.75;;;;;;;18.37;90.29;101232.00;5103429;28;20077;-50
2023/08/15 02:41:11;;;;;;;8.30;3.33;;;;;;;18.35;89.78;101227.75;5102084;28;20020;-50
2023/08/15 02:43:37;;;;;;;9.50;3.40;;;;;;;18.33;90.09;101227.09;5098564;28;20433;-50
2023/08/15 02:46:02;;;;;;;12.30;3.42;;;;;;;18.30;91.12;101218.34;5096931;28;20048;-52
2023/08/15 02:48:28;;;;;;;11.10;3.58;;;;;;;18.28;91.51;101214.94;5103661;28;20373;-48
2023/08/15 02:50:53;;;;;;;14.73;3.88;;;;;;;18.26;90.37;101219.66;5099819;28;20535;-49
2023/08/15 02:53:18;;;;;;;13.73;3.30;;;;;;;18.25;90.37;101217.97;5102761;28;20550;-50
2023/08/15 02:55:44;;;;;;;11.10;3.78;;;;;;;18.25;91.76;101227.88;5101506;28;20057;-49
2023/08/15 02:58:09;;;;;;;9.45;3.45;;;;;;;18.21;90.88;101226.50;5099427;28;20032;-49
2023/08/15 03:00:35;;;;;;;11.85;3.97;;;;;;;18.17;92.38;101220.59;5099156;28;20363;-47
2023/08/15 03:03:01;;;;;;;11.23;3.83;;;;;;;18.15;92.33;101227.97;5101397;28;20016;-49
2023/08/15 03:05:27;;;;;;;13.52;3.85;;;;;;;18.14;92.65;101226.31;5101224;28;20106;-49
2023/08/15 03:07:52;;;;;;;9.80;3.60;;;;;;;18.12;92.07;101221.06;5097525;28;20056;-49
2023/08/15 03:10:17;;;;;;;9.70;3.78;;;;;;;18.08;92.97;101233.13;5102238;28;20035;-51
2023/08/15 03:12:43;;;;;;;13.15;4.05;;;;;;;18.06;93.69;101216.31;5101953;28;20481;-52
2023/08/15 03:15:08;;;;;;;9.63;3.65;;;;;;;18.03;93.55;101219.31;5102075;28;20032;-48
2023/08/15 03:17:34;;;;;;;8.80;3.60;;;;;;;18.02;93.99;101212.28;5107010;28;20026;-49
2023/08/15 03:19:59;;;;;;;6.53;3.60;;;;;;;18.00;94.61;101218.78;5102730;28;20027;-49
2023/08/15 03:22:25;;;;;;;8.82;4.28;;;;;;;17.98;94.34;101215.44;5099298;28;20099;-49
2023/08/15 03:24:50;;;;;;;16.60;4.65;;;;;;;17.94;94.77;101212.22;5103555;28;20035;-49
2023/08/15 03:27:15;;;;;;;11.23;3.85;;;;;;;17.91;94.10;101210.66;5104615;28;20028;-49
2023/08/15 03:29:41;;;;;;;13.05;4.10;;;;;;;17.89;94.88;101209.16;5105961;28;20016;-49
2023/08/15 03:32:06;;;;;;;12.43;4.93;;;;;;;17.85;95.72;101222.03;5104372;28;20426;-49
2023/08/15 03:34:31;;;;;;;10.40;3.95;;;;;;;17.81;96.04;101215.28;5101184;28;20055;-50
2023/08/15 03:36:57;;;;;;;11.77;3.97;;;;;;;17.82;95.41;101218.78;5105479;28;20046;-50
2023/08/15 03:39:22;;;;;;;8.63;3.50;;;;;;;17.77;96.31;101227.34;5100005;28;20027;-51
2023/08/15 03:41:47;;;;;;;11.02;3.90;;;;;;;17.76;95.97;101229.16;5099365;28;20040;-49
2023/08/15 03:44:13;;;;;;;8.02;3.60;;;;;;;17.72;96.72;101233.19;5098842;28;20138;-49
2023/08/15 03:46:40;;;;;;;12.70;4.57;;;;;;;17.71;96.71;101236.00;5103466;28;20537;-50
2023/08/15 03:49:06;;;;;;;10.63;3.75;;;;;;;17.64;97.07;101241.16;5104957;28;20107;-49
2023/08/15 03:51:31;;;;;;;9.68;3.65;;;;;;;17.66;96.87;101246.38;5103376;28;20116;-49
2023/08/15 03:53:57;;;;;;;8.98;3.88;;;;;;;17.64;97.18;101243.00;5106155;28;20126;-49
2023/08/15 03:56:23;;;;;;;8.55;4.05;;;;;;;17.56;97.72;101249.13;5102740;28;20143;-49
2023/08/15 03:58:48;;;;;;;8.57;3.90;;;;;;;17.55;98.34;101251.00;5102547;28;20103;-49
2023/08/15 04:01:14;;;;;;;12.25;3.67;;;;;;;17.49;98.29;101259.66;5100749;28;20034;-49
2023/08/15 04:03:39;;;;;;;12.43;4.28;;;;;;;17.48;98.39;101243.69;5104717;28;20024;-49
2023/08/15 04:06:05;;;;;;;11.75;3.80;;;;;;;17.46;97.75;101245.69;5098796;28;20438;-49
2023/08/15 04:08:30;;;;;;;9.48;4.20;;;;;;;17.41;98.74;101235.41;5100919;28;20024;-49
2023/08/15 04:10:55;;;;;;;10.95;4.05;;;;;;;17.42;97.91;101250.53;5101772;28;20024;-49
2023/08/15 04:13:21;;;;;;;10.77;3.67;;;;;;;17.40;97.47;101249.81;5101307;28;20026;-50
2023/08/15 04:15:46;;;;;;;15.98;5.40;;;;;;;17.36;98.10;101243.06;5102331;28;20493;-50
2023/08/15 04:18:11;;;;;;;12.43;4.50;;;;;;;17.26;99.08;101232.41;5098185;28;20320;-50
2023/08/15 04:20:41;;;;;;;9.98;4.32;;;;;;;17.27;98.95;101234.09;5094957;28;20047;-52
2023/08/15 04:23:07;;;;;;;11.82;4.38;;;;;;;17.24;98.52;101230.88;5098439;28;20255;-50
2023/08/15 04:25:37;;;;;;;14.88;4.90;;;;;;;17.20;99.25;101230.31;5093252;28;20489;-50
2023/08/15 04:28:02;;;;;;;11.35;4.15;;;;;;;17.18;99.69;101235.81;5098003;28;20470;-50
2023/08/15 04:30:29;;;;;;;12.23;4.53;;;;;;;17.15;99.82;101241.53;5099672;28;20042;-50
2023/08/15 04:32:55;;;;;;;15.55;4.82;;;;;;;17.16;99.75;101239.69;5104319;28;20474;-49
2023/08/15 04:35:22;;;;;;;11.73;3.97;;;;;;;17.12;99.94;101249.00;5103592;28;20080;-49
2023/08/15 04:37:47;;;;;;;10.82;4.60;;;;;;;17.10;100.00;101256.38;5105617;28;20051;-49
2023/08/15 04:40:12;;;;;;;13.40;5.15;;;;;;;17.11;100.00;101260.75;5106204;28;20466;-50
2023/08/15 04:42:38;;;;;;;9.77;5.30;;;;;;;17.05;100.00;101258.66;5104795;28;20022;-49
2023/08/15 04:45:04;;;;;;;11.38;4.90;;;;;;;17.02;100.00;101267.88;5105257;28;20058;-49
2023/08/15 04:47:30;;;;;;;13.02;5.22;;;;;;;16.98;100.00;101263.78;5096693;28;20039;-49
2023/08/15 04:49:55;;;;;;;11.25;4.68;;;;;;;16.98;100.00;101261.09;5098658;28;20055;-49
2023/08/15 04:52:20;;;;;;;12.80;5.15;;;;;;;16.95;100.00;101270.31;5099668;28;20107;-49
2023/08/15 04:54:46;;;;;;;11.35;5.30;;;;;;;16.96;100.00;101276.50;5105658;28;20504;-49
2023/08/15 04:57:11;;;;;;;11.80;5.40;;;;;;;16.96;100.00;101280.03;5104959;28;20271;-48
2023/08/15 04:59:37;;;;;;;12.00;4.85;;;;;;;16.95;100.00;101282.88;5097582;28;20023;-49
2023/08/15 05:02:02;;;;;;;11.57;4.38;;;;;;;16.97;100.00;101294.28;5105387;28;20039;-49
2023/08/15 05:04:27;;;;;;;12.45;4.95;;;;;;;16.95;100.00;101307.88;5092179;28;20355;-49
2023/08/15 05:06:52;;;;;;;9.43;4.63;;;;;;;16.97;100.00;101307.69;5098067;28;20355;-49
2023/08/15 05:09:18;;;;;;;10.65;4.22;;;;;;;16.94;100.00;101308.03;5098908;28;20020;-48
2023/08/15 05:11:45;;;;;;;11.98;4.25;;;;;;;16.97;100.00;101313.06;5101232;28;20031;-49
2023/08/15 05:14:11;;;;;;;11.93;4.82;;;;;;;16.97;100.00;101323.81;5097674;28;20023;-48
2023/08/15 05:16:36;;;;;;;8.15;4.60;;;;;;;16.98;100.00;101320.13;5100580;28;20045;-49
2023/08/15 05:19:01;;;;;;;13.93;4.72;;;;;;;16.96;100.00;101325.66;5100672;28;20119;-49
2023/08/15 05:21:28;;;;;;;12.02;4.45;;;;;;;16.98;100.00;101331.69;5097929;28;20473;-49
2023/08/15 05:23:53;;;;;;;9.73;4.60;;;;;;;17.02;100.00;101340.34;5104255;28;20078;-49
2023/08/15 05:26:18;;;;;;;9.57;4.22;;;;;;;17.05;100.00;101333.81;5100014;28;20029;-49
2023/08/15 05:28:44;;;;;;;9.80;4.78;;;;;;;17.06;100.00;101339.03;5103612;28;20055;-49
2023/08/15 05:31:09;;;;;;;11.48;4.22;;;;;;;17.06;100.00;101339.03;5100624;28;20500;-49
2023/08/15 05:33:34;;;;;;;11.95;4.72;;;;;;;17.10;100.00;101350.31;5102847;28;20059;-48
2023/08/15 05:35:59;;;;;;;12.48;4.57;;;;;;;17.12;100.00;101346.50;5100176;28;20130;-49
2023/08/15 05:38:25;;;;;;;9.82;4.38;;;;;;;17.17;100.00;101348.75;5099397;28;20469;-49
2023/08/15 05:40:50;;;;;;;12.93;4.70;;;;;;;17.20;100.00;101326.94;5097025;28;20107;-49
2023/08/15 05:43:15;;;;;;;13.45;4.72;;;;;;;17.24;100.00;101327.53;5098185;28;20485;-49
2023/08/15 05:45:43;;;;;;;13.48;4.78;;;;;;;17.28;100.00;101324.38;5100937;28;20043;-49
2023/08/15 05:48:09;;;;;;;17.25;5.63;;;;;;;17.32;100.00;101330.28;5101641;28;20507;-48
2023/08/15 05:50:34;;;;;;;12.10;4.95;;;;;;;17.37;100.00;101333.38;5095043;28;20040;-48
2023/08/15 05:52:59;;;;;;;10.05;4.47;;;;;;;17.44;100.00;101344.38;5103284;28;20559;-49
2023/08/15 05:55:25;;;;;;;12.07;5.03;;;;;;;17.47;100.00;101352.09;5095889;28;20024;-49
2023/08/15 05:57:50;;;;;;;13.45;5.13;;;;;;;17.53;100.00;101356.88;5097065;28;20119;-49
2023/08/15 06:00:15;;;;;;;11.27;4.50;;;;;;;17.60;100.00;101351.75;5101525;28;20012;-48
2023/08/15 06:02:41;;;;;;;11.18;5.13;;;;;;;17.62;100.00;101360.50;5098675;28;20347;-48
2023/08/15 06:05:07;;;;;;;13.43;4.65;;;;;;;17.69;100.00;101366.97;5095191;28;20058;-49
2023/08/15 06:07:32;;;;;;;15.60;5.10;;;;;;;17.73;100.00;101361.13;5093219;28;20075;-48
2023/08/15 06:09:57;;;;;;;13.32;5.32;;;;;;;17.78;100.00;101363.34;5092994;28;20474;-48
2023/08/15 06:12:23;;;;;;;13.88;4.60;;;;;;;17.81;100.00;101362.22;5102488;28;20035;-48
2023/08/15 06:14:48;;;;;;;15.93;6.00;;;;;;;17.85;100.00;101372.50;5096642;28;20024;-49
2023/08/15 06:17:13;;;;;;;17.13;6.28;;;;;;;17.87;100.00;101378.59;5090961;28;20036;-49
2023/08/15 06:19:39;;;;;;;12.10;5.20;;;;;;;17.91;100.00;101385.34;5094534;28;20077;-51
2023/08/15 06:22:05;;;;;;;15.10;5.65;;;;;;;17.96;100.00;101386.75;5091809;28;20036;-50
2023/08/15 06:24:30;;;;;;;17.90;5.70;;;;;;;18.01;100.00;101393.34;5093427;28;20073;-48
2023/08/15 06:26:55;;;;;;;15.85;6.38;;;;;;;18.05;100.00;101393.88;5098272;28;20485;-49
2023/08/15 06:29:21;;;;;;;12.27;5.38;;;;;;;18.09;100.00;101388.06;5092206;28;20039;-49
2023/08/15 06:31:46;;;;;;;13.98;5.97;;;;;;;18.14;100.00;101392.97;5098811;28;20024;-50
2023/08/15 06:34:11;;;;;;;12.75;6.50;;;;;;;18.20;100.00;101391.50;5101640;28;20110;-49
2023/08/15 06:36:37;;;;;;;12.95;5.80;;;;;;;18.25;100.00;101391.88;5099022;28;20073;-47
2023/08/15 06:39:03;;;;;;;13.47;6.17;;;;;;;18.31;100.00;101384.03;5100143;28;20031;-48
2023/08/15 06:41:30;;;;;;;14.38;6.60;;;;;;;18.36;100.00;101388.13;5099752;28;20273;-48
2023/08/15 06:43:55;;;;;;;15.50;6.35;;;;;;;18.48;100.00;101395.81;5101545;28;20423;-48
2023/08/15 06:46:20;;;;;;;13.55;6.20;;;;;;;18.49;100.00;101380.50;5101143;28;20020;-48
2023/08/15 06:48:46;;;;;;;11.13;5.75;;;;;;;18.61;100.00;101387.31;5095386;28;20031;-48
2023/08/15 06:51:11;;;;;;;14.98;6.90;;;;;;;18.63;99.94;101396.06;5100113;28;20020;-48
2023/08/15 06:53:40;;;;;;;15.38;6.50;;;;;;;18.76;100.00;101401.03;5095648;28;20028;-47
2023/08/15 06:56:05;;;;;;;12.03;6.37;;;;;;;18.86;100.00;101398.28;5093846;28;20524;-48
2023/08/15 06:58:30;;;;;;;12.65;6.05;;;;;;;18.97;100.00;101398.00;5094464;28;20107;-48
2023/08/15 07:00:55;;;;;;;16.08;5.65;;;;;;;19.11;100.00;101395.72;5098308;28;20055;-48
2023/08/15 07:03:21;;;;;;;14.20;5.95;;;;;;;19.23;99.65;101392.59;5099302;28;20020;-48
2023/08/15 07:05:46;;;;;;;16.75;6.53;;;;;;;19.37;99.20;101401.91;5096846;28;20024;-48
2023/08/15 07:08:15;;;;;;;17.70;6.10;;;;;;;19.62;97.84;101399.31;5099918;28;20028;-49
2023/08/15 07:10:41;;;;;;;13.00;5.55;;;;;;;19.84;99.51;101397.88;5099526;28;20443;-49
2023/08/15 07:13:06;;;;;;;12.70;5.18;;;;;;;20.04;96.95;101397.59;5099369;28;20020;-48
2023/08/15 07:15:31;;;;;;;12.18;5.07;;;;;;;20.14;95.78;101404.50;5092019;28;20457;-49
2023/08/15 07:17:57;;;;;;;12.43;5.05;;;;;;;20.29;94.70;101401.16;5090418;28;20031;-49
2023/08/15 07:20:22;;;;;;;10.13;4.43;;;;;;;20.57;93.47;101404.34;5094698;28;20019;-48
2023/08/15 07:22:48;;;;;;;11.88;4.88;;;;;;;20.63;91.44;101414.50;5097096;28;20062;-48
2023/08/15 07:25:13;;;;;;;13.95;4.45;;;;;;;20.80;91.10;101419.88;5099461;28;20091;-50
2023/08/15 07:27:39;;;;;;;12.20;4.30;;;;;;;20.97;91.15;101420.72;5099337;28;20101;-49
2023/08/15 07:30:05;;;;;;;12.07;3.90;;;;;;;21.04;89.44;101427.09;5100198;28;20024;-49
2023/08/15 07:32:31;;;;;;;10.80;3.83;;;;;;;21.17;nan;101427.41;5099091;28;20030;-49
2023/08/15 07:34:56;;;;;;;12.60;3.90;;;;;;;21.25;86.79;101424.66;5099632;28;20028;-49
2023/08/15 07:37:22;;;;;;;9.90;3.65;;;;;;;21.41;87.96;101431.03;5097097;28;20056;-49
2023/08/15 07:39:55;;;;;;;10.20;3.65;;;;;;;21.52;86.39;101436.09;5099737;28;20028;-49
2023/08/15 07:42:21;;;;;;;7.78;3.38;;;;;;;21.65;85.58;101438.25;5090664;28;20389;-49
2023/08/15 07:44:47;;;;;;;9.90;3.10;;;;;;;21.77;83.71;101442.22;5099533;28;20056;-49
2023/08/15 07:47:12;;;;;;;7.13;2.83;;;;;;;21.84;83.24;101438.81;5099297;28;20024;-48
2023/08/15 07:49:38;;;;;;;12.52;3.17;;;;;;;21.84;81.97;101436.94;5097067;28;20028;-49
2023/08/15 07:52:04;;;;;;;8.82;3.03;;;;;;;21.83;81.86;101432.53;5098545;28;20377;-49
2023/08/15 07:54:29;;;;;;;9.95;3.10;;;;;;;21.92;82.13;101434.19;5096170;28;20034;-49
2023/08/15 07:56:54;;;;;;;10.30;3.03;;;;;;;22.04;81.87;101437.34;5098478;28;20038;-49
2023/08/15 07:59:19;;;;;;;10.67;3.13;;;;;;;22.20;82.69;101436.41;5098605;28;20107;-49
2023/08/15 08:01:45;;;;;;;8.90;3.60;;;;;;;22.43;82.58;101447.25;5100442;28;20288;-48
2023/08/15 08:04:11;;;;;;;9.52;3.08;;;;;;;22.52;80.37;101442.63;5096510;28;20062;-50
2023/08/15 08:06:36;;;;;;;12.60;3.63;;;;;;;22.61;78.49;101444.22;5094175;28;20032;-49
2023/08/15 08:09:05;;;;;;;12.55;2.97;;;;;;;22.80;78.36;101447.44;5090073;28;20044;-49
2023/08/15 08:11:30;;;;;;;10.30;3.20;;;;;;;22.94;77.73;101443.91;5090833;28;20028;-49
2023/08/15 08:13:55;;;;;;;11.77;3.40;;;;;;;23.17;76.56;101437.63;5092271;28;20426;-49
2023/08/15 08:16:21;;;;;;;8.00;2.70;;;;;;;23.28;74.43;101435.28;5105742;28;20031;-49
2023/08/15 08:18:46;;;;;;;9.05;2.97;;;;;;;23.45;75.91;101445.94;5097107;28;20035;-49
2023/08/15 08:21:12;;;;;;;12.82;3.13;;;;;;;23.54;74.86;101436.66;5105531;28;20583;-48
2023/08/15 08:23:37;;;;;;;10.98;3.50;;;;;;;23.73;76.41;101445.22;5105948;28;20089;-50
2023/08/15 08:26:02;;;;;;;9.13;3.00;;;;;;;23.91;74.15;101447.56;5099202;28;20107;-49
2023/08/15 08:28:29;;;;;;;7.75;3.22;;;;;;;23.96;72.09;101442.41;5099200;28;20031;-49
2023/08/15 08:30:54;;;;;;;12.90;3.30;;;;;;;24.18;73.32;101448.69;5099492;28;20070;-48
2023/08/15 08:33:19;;;;;;;10.50;3.47;;;;;;;24.20;72.80;101446.63;5102065;28;20070;-48
2023/08/15 08:35:44;;;;;;;6.87;2.77;;;;;;;24.33;71.48;101443.19;5096887;28;20070;-48
2023/08/15 08:38:10;;;;;;;9.30;2.70;;;;;;;24.32;70.70;101445.06;5097840;28;20297;-50
2023/08/15 08:40:36;;;;;;;8.07;2.95;;;;;;;24.27;71.46;101444.81;5097145;28;20493;-49
2023/08/15 08:43:03;;;;;;;9.98;2.92;;;;;;;24.32;71.21;101447.78;5101030;28;20081;-48
2023/08/15 08:45:30;;;;;;;10.27;2.80;;;;;;;24.44;71.19;101455.44;5098829;28;20482;-50
2023/08/15 08:47:57;;;;;;;9.88;3.53;;;;;;;24.50;69.82;101454.66;5102625;28;20027;-48
2023/08/15 08:50:23;;;;;;;13.23;3.10;;;;;;;24.51;70.61;101451.72;5097507;28;20027;-49
2023/08/15 08:52:49;;;;;;;8.23;2.70;;;;;;;24.68;68.74;101446.03;5098090;28;20035;-49
2023/08/15 08:55:16;;;;;;;9.98;2.92;;;;;;;24.72;68.83;101458.22;5103744;28;20053;-50
2023/08/15 08:57:45;;;;;;;8.27;3.00;;;;;;;24.91;67.37;101456.69;5098937;27;20538;-49
2023/08/15 09:00:14;;;;;;;7.72;3.15;;;;;;;25.07;67.30;101463.69;5100113;28;20382;-49
2023/08/15 09:02:40;;;;;;;8.52;3.00;;;;;;;25.34;69.36;101463.91;5094442;28;20062;-49
2023/08/15 09:05:07;;;;;;;7.75;2.65;;;;;;;25.60;69.61;101458.59;5100104;28;20456;-49
2023/08/15 09:07:34;;;;;;;8.65;2.78;;;;;;;25.70;65.54;101460.06;5090641;28;20127;-49
2023/08/15 09:10:00;;;;;;;10.98;2.92;;;;;;;25.92;65.19;101458.09;5098343;28;20094;-49
2023/08/15 09:12:35;;;;;;;9.63;3.17;;;;;;;26.04;67.10;101459.19;5098784;28;20469;-49
2023/08/15 09:15:03;;;;;;;8.65;2.75;;;;;;;26.07;64.08;101461.50;5097467;28;20032;-49
2023/08/15 09:17:28;;;;;;;6.35;2.70;;;;;;;26.25;62.84;101471.81;5101009;28;20020;-49
2023/08/15 09:19:54;;;;;;;7.93;2.60;;;;;;;26.21;63.05;101467.81;5100380;28;20380;-49
2023/08/15 09:22:24;;;;;;;9.45;3.05;;;;;;;26.34;62.08;101469.72;5098683;28;20037;-48
2023/08/15 09:24:50;;;;;;;7.97;2.97;;;;;;;26.37;60.73;101472.03;5091868;28;20456;-49
2023/08/15 09:27:17;;;;;;;8.02;2.53;;;;;;;26.38;61.71;101473.72;5097201;28;20114;-49
2023/08/15 09:29:43;;;;;;;7.05;2.50;;;;;;;26.60;60.92;101471.66;5096920;28;20539;-49
2023/08/15 09:32:08;;;;;;;11.15;2.88;;;;;;;26.56;62.07;101470.38;5096372;28;20059;-49
2023/08/15 09:34:34;;;;;;;7.50;2.67;;;;;;;26.72;59.03;101478.16;5066719;28;20485;-49
2023/08/15 09:36:59;;;;;;;9.02;2.92;;;;;;;26.97;59.34;101480.25;5084009;28;20608;-49
2023/08/15 09:39:24;;;;;;;5.78;2.40;;;;;;;27.09;59.82;101475.00;5090734;28;20547;-49
2023/08/15 09:41:52;;;;;;;7.60;2.90;;;;;;;27.18;59.26;101467.44;5091771;28;20056;-49
2023/08/15 09:44:38;;;;;;;14.10;2.85;;;;;;;27.33;60.93;101470.81;5092596;28;20048;-49
2023/08/15 09:47:06;;;;;;;8.50;2.60;;;;;;;27.48;60.27;101473.28;5094491;28;20385;-49
2023/08/15 09:49:32;;;;;;;8.33;3.00;;;;;;;27.36;58.28;101477.69;5090306;28;20051;-49
2023/08/15 09:51:59;;;;;;;9.38;3.08;;;;;;;27.46;56.72;101475.34;5090703;28;20077;-49
2023/08/15 09:54:25;;;;;;;9.77;2.90;;;;;;;27.57;58.20;101480.16;5093490;28;20035;-49
2023/08/15 09:56:51;;;;;;;8.23;2.33;;;;;;;27.70;57.36;101476.53;5094431;28;20020;-49
2023/08/15 09:59:17;;;;;;;10.23;2.63;;;;;;;27.79;55.25;101477.97;5100648;28;20085;-49
2023/08/15 10:01:45;;;;;;;8.00;2.50;;;;;;;27.65;54.28;101484.56;5092829;28;20103;-49
2023/08/15 10:04:12;;;;;;;6.22;2.58;;;;;;;27.58;53.76;101486.44;5095498;28;20016;-48
2023/08/15 10:06:42;;;;;;;9.05;2.53;;;;;;;27.75;53.86;101493.09;5102538;28;20023;-49
2023/08/15 10:09:09;;;;;;;7.40;2.30;;;;;;;28.03;54.78;101505.63;5094480;28;20055;-49
2023/08/15 10:11:39;;;;;;;7.00;1.88;;;;;;;28.18;55.34;101503.44;5097047;28;20032;-48
2023/08/15 10:14:08;;;;;;;7.15;2.50;;;;;;;28.38;52.68;101502.47;5093845;28;20089;-51
2023/08/15 10:16:34;;;;;;;9.10;2.40;;;;;;;28.44;54.08;101501.56;5100671;28;20032;-48
2023/08/15 10:19:01;;;;;;;9.80;2.13;;;;;;;28.47;53.41;101503.88;5098316;28;20089;-48
2023/08/15 10:21:46;;;;;;;8.77;2.35;;;;;;;28.76;55.03;101498.84;5100190;27;20032;-48
2023/08/15 10:24:11;;;;;;;7.00;2.05;;;;;;;28.76;51.41;101502.44;5099122;28;20032;-48
2023/08/15 10:26:38;;;;;;;9.10;2.17;;;;;;;28.72;52.23;101500.38;5100513;28;20026;-49
2023/08/15 10:29:03;;;;;;;9.20;3.42;;;;;;;28.81;50.59;101506.38;5093456;28;20028;-48
2023/08/15 10:31:36;;;;;;;7.43;2.30;;;;;;;29.05;52.32;101497.34;5098885;28;20028;-48
2023/08/15 10:34:03;;;;;;;11.38;2.70;;;;;;;28.89;51.30;101508.84;5101665;28;20474;-49
2023/08/15 10:36:30;;;;;;;6.85;2.47;;;;;;;28.94;52.42;101507.13;5100465;28;20019;-47
2023/08/15 10:38:55;;;;;;;6.03;2.45;;;;;;;28.93;50.08;101508.19;5093972;28;20062;-49
2023/08/15 10:41:21;;;;;;;9.38;2.42;;;;;;;29.09;49.97;101509.47;5099685;28;20031;-48
2023/08/15 10:43:55;;;;;;;7.63;2.40;;;;;;;28.97;51.53;101514.03;5093452;28;20099;-48
2023/08/15 10:46:26;;;;;;;7.60;2.25;;;;;;;28.81;51.65;101507.22;5096735;28;20042;-48
2023/08/15 10:48:54;;;;;;;5.43;2.13;;;;;;;28.62;51.43;101516.44;5089338;28;20114;-48
2023/08/15 10:51:23;;;;;;;;;;;;;;;29.12;54.58;101511.78;5099258;28;20435;-48
2023/08/15 10:53:50;;;;;;;9.43;2.40;;;;;;;28.73;51.08;101510.25;5095557;28;19904;-48
2023/08/15 10:56:24;;;;;;;7.32;2.15;;;;;;;28.76;53.44;101507.03;5095277;28;20512;-49
2023/08/15 10:58:50;;;;;;;6.00;2.67;;;;;;;28.92;50.89;101500.19;5099047;28;20051;-49
2023/08/15 11:01:17;;;;;;;6.65;2.17;;;;;;;29.11;51.17;101498.31;5099695;28;20473;-48
2023/08/15 11:03:43;;;;;;;6.18;2.30;;;;;;;29.26;50.75;101504.31;5100190;28;20036;-48
2023/08/15 11:06:11;;;;;;;6.78;2.25;;;;;;;29.49;48.60;101500.06;5093550;28;20031;-48
2023/08/15 11:08:44;;;;;;;5.32;2.05;;;;;;;29.45;49.02;101507.91;5097741;28;20020;-48
2023/08/15 11:11:10;;;;;;;7.25;2.47;;;;;;;29.27;48.51;101502.41;5090482;28;20019;-49
2023/08/15 11:13:38;;;;;;;7.38;2.65;;;;;;;29.31;48.42;101501.75;5093350;28;20076;-48
2023/08/15 11:16:04;;;;;;;4.93;2.58;;;;;;;29.21;48.81;101504.16;5088625;28;20024;-48